createdAt,value
2023-01-18T00:01:19.939Z,93.95
2023-01-18T00:03:47.499Z,93.28
2023-01-18T00:06:14.838Z,92.39
2023-01-18T00:08:42.521Z,92.40
2023-01-18T00:11:15.835Z,92.26
2023-01-18T00:13:43.262Z,93.27
2023-01-18T00:16:21.779Z,91.81
2023-01-18T00:18:57.912Z,92.70
2023-01-18T00:21:27.569Z,93.12
2023-01-18T00:23:57.613Z,94.12
2023-01-18T00:26:24.701Z,94.37
2023-01-18T00:28:51.726Z,93.50
2023-01-18T00:31:21.029Z,92.83
2023-01-18T00:33:50.320Z,92.96
2023-01-18T00:36:19.023Z,92.81
2023-01-18T00:38:54.021Z,92.60
2023-01-18T00:41:22.833Z,92.43
2023-01-18T00:43:51.530Z,92.56
2023-01-18T00:46:25.862Z,92.77
2023-01-18T00:48:54.654Z,92.86
2023-01-18T00:51:25.283Z,93.37
2023-01-18T00:53:52.400Z,93.01
2023-01-18T00:56:22.336Z,93.33
2023-01-18T00:58:49.526Z,92.88
2023-01-18T01:01:17.184Z,93.00
2023-01-18T01:04:03.080Z,93.21
2023-01-18T01:06:44.777Z,93.44
2023-01-18T01:09:21.112Z,93.00
2023-01-18T01:12:07.984Z,91.92
2023-01-18T01:15:00.774Z,93.44
2023-01-18T01:17:52.967Z,93.23
2023-01-18T01:20:39.347Z,92.52
2023-01-18T01:23:44.146Z,91.98
2023-01-18T01:26:11.844Z,91.44
2023-01-18T01:28:43.017Z,91.21
2023-01-18T01:31:16.489Z,90.48
2023-01-18T01:33:45.270Z,91.25
2023-01-18T01:36:17.213Z,92.41
2023-01-18T01:38:44.779Z,91.92
2023-01-18T01:41:32.653Z,91.81
2023-01-18T01:44:18.423Z,91.64
2023-01-18T01:46:54.934Z,92.32
2023-01-18T01:49:34.685Z,91.79
2023-01-18T01:52:14.779Z,92.37
2023-01-18T01:54:56.861Z,93.05
2023-01-18T01:57:34.519Z,92.54
2023-01-18T02:00:19.533Z,92.01
2023-01-18T02:03:01.350Z,92.32
2023-01-18T02:05:31.757Z,92.37
2023-01-18T02:08:02.127Z,92.71
2023-01-18T02:10:30.592Z,92.15
2023-01-18T02:13:00.128Z,92.22
2023-01-18T02:15:43.253Z,92.68
2023-01-18T02:18:29.741Z,93.11
2023-01-18T02:21:40.461Z,94.29
2023-01-18T02:25:06.294Z,94.19
2023-01-18T02:27:46.358Z,93.69
2023-01-18T02:30:41.583Z,94.45
2023-01-18T02:33:47.150Z,95.01
2023-01-18T02:36:39.805Z,94.88
2023-01-18T02:39:28.642Z,95.07
2023-01-18T02:42:32.127Z,94.49
2023-01-18T02:45:21.019Z,94.33
2023-01-18T02:47:48.914Z,94.23
2023-01-18T02:50:27.066Z,93.90
2023-01-18T02:52:54.678Z,92.75
2023-01-18T02:56:19.101Z,91.61
2023-01-18T02:58:55.028Z,91.71
2023-01-18T03:01:44.941Z,92.46
2023-01-18T03:04:36.796Z,92.56
2023-01-18T03:07:21.585Z,92.59
2023-01-18T03:09:49.031Z,92.84
2023-01-18T03:12:58.682Z,92.20
2023-01-18T03:16:06.786Z,94.08
2023-01-18T03:19:02.308Z,94.66
2023-01-18T03:21:47.423Z,95.29
2023-01-18T03:24:16.514Z,94.98
2023-01-18T03:26:51.050Z,94.42
2023-01-18T03:29:39.337Z,94.19
2023-01-18T03:32:33.790Z,93.48
2023-01-18T03:35:13.405Z,92.60
2023-01-18T03:37:49.088Z,93.61
2023-01-18T03:40:27.957Z,94.14
2023-01-18T03:43:16.147Z,94.13
2023-01-18T03:45:49.378Z,92.65
2023-01-18T03:48:16.939Z,92.84
2023-01-18T03:51:23.691Z,92.85
2023-01-18T03:54:23.974Z,92.87
2023-01-18T03:57:33.778Z,93.15
2023-01-18T04:00:05.948Z,92.78
2023-01-18T04:02:33.326Z,92.52
2023-01-18T04:05:03.616Z,92.91
2023-01-18T04:07:32.071Z,93.44
2023-01-18T04:10:00.381Z,93.13
2023-01-18T04:12:27.771Z,92.17
2023-01-18T04:14:54.888Z,92.54
2023-01-18T04:17:21.924Z,92.81
2023-01-18T04:19:49.039Z,92.19
2023-01-18T04:22:16.612Z,91.50
2023-01-18T04:24:43.725Z,92.41
2023-01-18T04:27:10.913Z,91.67
2023-01-18T04:29:38.236Z,92.07
2023-01-18T04:32:06.444Z,91.96
2023-01-18T04:34:34.088Z,92.10
2023-01-18T04:37:01.156Z,91.44
2023-01-18T04:39:28.265Z,91.06
2023-01-18T04:41:57.178Z,92.03
2023-01-18T04:44:24.825Z,92.42
2023-01-18T04:46:51.869Z,92.34
2023-01-18T04:49:18.989Z,91.85
2023-01-18T04:51:47.274Z,91.46
2023-01-18T04:54:19.028Z,91.41
2023-01-18T04:56:46.144Z,91.94
2023-01-18T04:59:16.273Z,92.48
2023-01-18T05:01:43.480Z,91.85
2023-01-18T05:04:10.879Z,91.73
2023-01-18T05:06:37.985Z,92.18
2023-01-18T05:09:05.160Z,92.58
2023-01-18T05:11:32.323Z,92.59
2023-01-18T05:14:00.865Z,92.22
2023-01-18T05:16:28.129Z,91.89
2023-01-18T05:18:55.242Z,91.59
2023-01-18T05:21:22.642Z,92.05
2023-01-18T05:23:49.981Z,92.16
2023-01-18T05:26:23.986Z,92.25
2023-01-18T05:28:56.761Z,92.28
2023-01-18T05:31:24.518Z,92.14
2023-01-18T05:33:52.005Z,92.26
2023-01-18T05:36:19.039Z,92.12
2023-01-18T05:38:47.127Z,92.50
2023-01-18T05:41:14.157Z,92.05
2023-01-18T05:43:41.236Z,91.50
2023-01-18T05:46:08.369Z,92.15
2023-01-18T05:48:35.472Z,92.23
2023-01-18T05:51:09.263Z,91.69
2023-01-18T05:53:36.371Z,91.76
2023-01-18T05:56:08.525Z,91.75
2023-01-18T05:58:35.875Z,90.91
2023-01-18T06:01:02.993Z,90.26
2023-01-18T06:03:30.302Z,90.70
2023-01-18T06:05:59.149Z,90.70
2023-01-18T06:08:29.637Z,90.82
2023-01-18T06:10:59.640Z,90.62
2023-01-18T06:13:36.148Z,90.94
2023-01-18T06:16:04.189Z,90.58
2023-01-18T06:18:33.339Z,91.26
2023-01-18T06:21:03.317Z,90.88
2023-01-18T06:24:19.709Z,91.15
2023-01-18T06:26:47.073Z,91.49
2023-01-18T06:29:14.060Z,91.82
2023-01-18T06:31:41.353Z,91.68
2023-01-18T06:34:09.411Z,92.26
2023-01-18T06:36:42.156Z,92.57
2023-01-18T06:39:09.228Z,92.99
2023-01-18T06:41:36.329Z,93.25
2023-01-18T06:44:06.323Z,93.27
2023-01-18T06:46:35.534Z,92.56
2023-01-18T06:49:02.603Z,92.16
2023-01-18T06:51:29.642Z,92.65
2023-01-18T06:53:56.679Z,92.14
2023-01-18T06:56:26.833Z,92.22
2023-01-18T06:58:55.851Z,92.14
2023-01-18T07:01:24.911Z,92.40
2023-01-18T07:03:58.240Z,92.41
2023-01-18T07:06:25.686Z,92.57
2023-01-18T07:08:52.875Z,92.56
2023-01-18T07:11:19.938Z,92.42
2023-01-18T07:13:47.250Z,91.91
2023-01-18T07:16:17.955Z,92.32
2023-01-18T07:18:49.815Z,92.00
2023-01-18T07:21:19.309Z,92.17
2023-01-18T07:23:46.417Z,92.01
2023-01-18T07:26:17.250Z,92.08
2023-01-18T07:28:46.213Z,92.11
2023-01-18T07:31:14.887Z,91.84
2023-01-18T07:33:42.080Z,91.58
2023-01-18T07:36:10.850Z,92.01
2023-01-18T07:38:39.313Z,91.79
2023-01-18T07:41:14.093Z,91.46
2023-01-18T07:43:44.595Z,91.55
2023-01-18T07:46:16.998Z,91.77
2023-01-18T07:48:44.879Z,92.01
2023-01-18T07:51:15.289Z,92.03
2023-01-18T07:53:42.472Z,91.68
2023-01-18T07:56:15.937Z,92.24
2023-01-18T07:58:45.782Z,92.24
2023-01-18T08:01:20.855Z,91.96
2023-01-18T08:03:49.980Z,91.54
2023-01-18T08:06:24.974Z,91.58
2023-01-18T08:08:54.556Z,91.43
2023-01-18T08:11:21.599Z,91.18
2023-01-18T08:13:49.289Z,91.14
2023-01-18T08:16:16.590Z,91.10
2023-01-18T08:18:47.512Z,90.89
2023-01-18T08:21:14.692Z,90.88
2023-01-18T08:23:42.274Z,90.99
2023-01-18T08:26:10.685Z,90.98
2023-01-18T08:28:37.846Z,90.68
2023-01-18T08:31:14.318Z,90.60
2023-01-18T08:33:45.940Z,90.90
2023-01-18T08:36:20.221Z,90.49
2023-01-18T08:38:57.017Z,90.33
2023-01-18T08:41:28.857Z,90.29
2023-01-18T08:43:57.634Z,90.08
2023-01-18T08:46:25.877Z,90.31
2023-01-18T08:48:56.920Z,90.46
2023-01-18T08:51:25.963Z,89.52
2023-01-18T08:53:56.428Z,89.56
2023-01-18T08:56:23.446Z,89.85
2023-01-18T08:58:52.130Z,89.40
2023-01-18T09:01:19.621Z,89.38
2023-01-18T09:03:48.746Z,89.10
2023-01-18T09:06:16.688Z,88.73
2023-01-18T09:08:47.720Z,88.80
2023-01-18T09:11:15.659Z,88.82
2023-01-18T09:13:59.464Z,88.80
2023-01-18T09:16:27.444Z,88.76
2023-01-18T09:18:56.159Z,88.74
2023-01-18T09:21:24.208Z,89.02
2023-01-18T09:23:54.153Z,88.88
2023-01-18T09:26:21.230Z,88.42
2023-01-18T09:28:52.716Z,88.53
2023-01-18T09:31:40.447Z,88.61
2023-01-18T09:34:18.774Z,88.20
2023-01-18T09:36:51.645Z,88.40
2023-01-18T09:39:21.260Z,87.54
2023-01-18T09:41:59.768Z,87.70
2023-01-18T09:44:42.168Z,87.42
2023-01-18T09:47:27.392Z,87.41
2023-01-18T09:50:02.927Z,87.48
2023-01-18T09:52:32.863Z,87.61
2023-01-18T09:55:51.651Z,88.15
2023-01-18T09:58:41.290Z,87.50
2023-01-18T10:01:33.037Z,86.99
2023-01-18T10:04:30.122Z,86.64
2023-01-18T10:07:12.315Z,85.99
2023-01-18T10:09:54.608Z,85.99
2023-01-18T10:12:42.274Z,86.54
2023-01-18T10:15:27.772Z,86.80
2023-01-18T10:17:57.616Z,86.70
2023-01-18T10:20:44.553Z,87.14
2023-01-18T10:23:35.584Z,86.39
2023-01-18T10:26:16.678Z,86.75
2023-01-18T10:29:14.422Z,86.21
2023-01-18T10:32:04.536Z,86.83
2023-01-18T10:34:39.306Z,86.33
2023-01-18T10:37:37.637Z,86.56
2023-01-18T10:40:10.184Z,87.04
2023-01-18T10:42:57.148Z,86.44
2023-01-18T10:45:34.640Z,85.18
2023-01-18T10:48:34.796Z,85.96
2023-01-18T10:51:06.675Z,86.26
2023-01-18T10:53:39.426Z,85.48
2023-01-18T10:56:26.707Z,85.18
2023-01-18T10:59:00.957Z,85.74
2023-01-18T11:01:36.239Z,84.41
2023-01-18T11:04:29.905Z,84.70
2023-01-18T11:07:03.987Z,84.30
2023-01-18T11:09:51.433Z,84.12
2023-01-18T11:12:45.581Z,84.43
2023-01-18T11:15:15.511Z,84.27
2023-01-18T11:17:56.271Z,84.46
2023-01-18T11:20:51.966Z,84.52
2023-01-18T11:23:36.365Z,84.44
2023-01-18T11:26:14.959Z,83.51
2023-01-18T11:29:06.639Z,84.26
2023-01-18T11:31:47.724Z,84.20
2023-01-18T11:34:31.658Z,83.40
2023-01-18T11:37:01.264Z,83.56
2023-01-18T11:39:37.766Z,83.78
2023-01-18T11:42:35.097Z,83.98
2023-01-18T11:45:59.513Z,84.06
2023-01-18T11:48:41.472Z,83.65
2023-01-18T11:51:50.489Z,83.08
2023-01-18T11:54:49.399Z,83.37
2023-01-18T11:57:16.606Z,83.65
2023-01-18T11:59:46.138Z,83.53
2023-01-18T12:03:40.115Z,84.19
2023-01-18T12:06:38.776Z,83.93
2023-01-18T12:09:19.125Z,84.54
2023-01-18T12:12:29.854Z,84.38
2023-01-18T12:15:22.429Z,83.34
2023-01-18T12:18:32.778Z,83.04
2023-01-18T12:21:31.300Z,83.19
2023-01-18T12:24:42.565Z,83.24
2023-01-18T12:27:43.936Z,83.10
2023-01-18T12:31:05.568Z,82.49
2023-01-18T12:34:00.222Z,82.62
2023-01-18T12:37:07.834Z,82.05
2023-01-18T12:40:24.654Z,82.46
2023-01-18T12:43:14.170Z,82.69
2023-01-18T12:46:04.651Z,83.33
2023-01-18T12:48:42.243Z,83.54
2023-01-18T12:51:21.217Z,83.55
2023-01-18T12:54:02.747Z,83.09
2023-01-18T12:56:46.433Z,83.93
2023-01-18T12:59:27.981Z,83.73
2023-01-18T13:02:33.605Z,83.50
2023-01-18T13:05:37.791Z,84.24
2023-01-18T13:08:20.223Z,83.65
2023-01-18T13:10:48.418Z,84.23
2023-01-18T13:13:26.969Z,83.78
2023-01-18T13:16:19.762Z,84.27
2023-01-18T13:19:14.118Z,84.37
2023-01-18T13:22:28.609Z,83.82
2023-01-18T13:25:46.297Z,84.13
2023-01-18T13:28:24.858Z,84.76
2023-01-18T13:31:03.028Z,84.61
2023-01-18T13:33:45.551Z,84.87
2023-01-18T13:36:17.968Z,84.98
2023-01-18T13:39:07.956Z,85.30
2023-01-18T13:41:35.036Z,84.69
2023-01-18T13:44:46.006Z,84.26
2023-01-18T13:47:46.795Z,84.06
2023-01-18T13:50:28.909Z,84.19
2023-01-18T13:53:31.467Z,84.40
2023-01-18T13:56:05.041Z,84.35
2023-01-18T13:58:35.924Z,84.78
2023-01-18T14:01:18.305Z,84.12
2023-01-18T14:03:49.225Z,84.40
2023-01-18T14:06:32.518Z,84.44
2023-01-18T14:09:12.299Z,84.59
2023-01-18T14:11:49.454Z,84.83
2023-01-18T14:14:17.717Z,84.77
2023-01-18T14:17:07.859Z,84.46
2023-01-18T14:19:57.405Z,84.65
2023-01-18T14:22:54.965Z,85.09
2023-01-18T14:26:15.228Z,84.06
2023-01-18T14:28:57.188Z,84.21
2023-01-18T14:31:33.405Z,84.35
2023-01-18T14:34:31.905Z,85.47
2023-01-18T14:36:59.723Z,84.72
2023-01-18T14:39:30.021Z,84.84
2023-01-18T14:42:04.214Z,84.55
2023-01-18T14:44:57.923Z,84.54
2023-01-18T14:47:31.308Z,84.80
2023-01-18T14:50:01.657Z,84.40
2023-01-18T14:52:34.484Z,84.98
2023-01-18T14:55:02.403Z,84.60
2023-01-18T14:57:29.451Z,84.26
2023-01-18T15:00:21.493Z,85.15
2023-01-18T15:02:49.032Z,85.24
2023-01-18T15:05:20.856Z,85.26
2023-01-18T15:07:55.733Z,85.01
2023-01-18T15:10:24.191Z,85.31
2023-01-18T15:12:58.051Z,85.88
2023-01-18T15:15:39.858Z,85.18
2023-01-18T15:18:23.381Z,85.46
2023-01-18T15:21:12.753Z,85.59
2023-01-18T15:23:41.278Z,85.26
2023-01-18T15:26:08.332Z,84.83
2023-01-18T15:28:35.577Z,85.11
2023-01-18T15:31:15.865Z,85.47
2023-01-18T15:33:44.739Z,84.99
2023-01-18T15:36:12.387Z,85.57
2023-01-18T15:38:39.999Z,86.44
2023-01-18T15:41:14.570Z,85.92
2023-01-18T15:43:44.810Z,86.33
2023-01-18T15:46:17.056Z,86.48
2023-01-18T15:48:56.641Z,86.15
2023-01-18T15:51:44.436Z,86.18
2023-01-18T15:54:25.606Z,86.05
2023-01-18T15:56:56.249Z,86.30
2023-01-18T15:59:28.074Z,86.36
2023-01-18T16:02:18.890Z,85.35
2023-01-18T16:05:23.026Z,85.53
2023-01-18T16:07:55.300Z,84.95
2023-01-18T16:10:30.142Z,85.33
2023-01-18T16:13:26.016Z,85.77
2023-01-18T16:16:24.364Z,85.45
2023-01-18T16:19:30.662Z,85.39
2023-01-18T16:22:16.051Z,86.13
2023-01-18T16:25:10.076Z,86.01
2023-01-18T16:27:55.686Z,86.78
2023-01-18T16:30:38.257Z,86.81
2023-01-18T16:33:14.288Z,86.77
2023-01-18T16:35:42.092Z,86.04
2023-01-18T16:38:20.316Z,86.65
2023-01-18T16:40:50.270Z,86.39
2023-01-18T16:43:29.406Z,86.27
2023-01-18T16:45:59.869Z,86.21
2023-01-18T16:48:29.423Z,86.07
2023-01-18T16:50:59.551Z,85.96
2023-01-18T16:53:28.257Z,86.56
2023-01-18T16:55:58.580Z,86.70
2023-01-18T16:58:26.294Z,86.34
2023-01-18T17:01:11.465Z,85.68
2023-01-18T17:03:39.479Z,86.13
2023-01-18T17:06:07.356Z,85.98
2023-01-18T17:08:34.396Z,85.94
2023-01-18T17:11:01.457Z,86.82
2023-01-18T17:13:28.558Z,86.71
2023-01-18T17:15:55.530Z,86.05
2023-01-18T17:18:25.723Z,86.04
2023-01-18T17:20:54.970Z,86.13
2023-01-18T17:23:23.186Z,86.22
2023-01-18T17:25:50.221Z,85.78
2023-01-18T17:28:19.067Z,85.65
2023-01-18T17:30:50.039Z,85.30
2023-01-18T17:33:24.637Z,86.17
2023-01-18T17:35:54.571Z,85.67
2023-01-18T17:38:25.154Z,85.98
2023-01-18T17:40:52.986Z,86.39
2023-01-18T17:43:36.540Z,85.93
2023-01-18T17:46:06.598Z,86.15
2023-01-18T17:48:34.283Z,85.86
2023-01-18T17:51:01.425Z,85.18
2023-01-18T17:53:28.610Z,85.10
2023-01-18T17:55:55.660Z,85.87
2023-01-18T17:58:23.092Z,85.42
2023-01-18T18:00:52.507Z,85.49
2023-01-18T18:03:20.626Z,85.62
2023-01-18T18:05:48.008Z,85.52
2023-01-18T18:08:17.441Z,85.54
2023-01-18T18:10:44.478Z,85.61
2023-01-18T18:13:11.589Z,85.88
2023-01-18T18:15:38.710Z,86.29
2023-01-18T18:18:12.290Z,86.73
2023-01-18T18:20:49.737Z,86.95
2023-01-18T18:23:17.217Z,86.61
2023-01-18T18:25:46.027Z,86.47
2023-01-18T18:28:13.167Z,86.55
2023-01-18T18:30:40.352Z,87.11
2023-01-18T18:33:07.637Z,86.31
2023-01-18T18:35:34.739Z,86.66
2023-01-18T18:38:01.819Z,86.19
2023-01-18T18:40:28.852Z,86.71
2023-01-18T18:43:02.272Z,87.00
2023-01-18T18:45:31.940Z,87.42
2023-01-18T18:48:00.140Z,87.88
2023-01-18T18:50:27.796Z,88.66
2023-01-18T18:52:54.863Z,89.14
2023-01-18T18:55:21.995Z,89.41
2023-01-18T18:57:51.097Z,89.26
2023-01-18T19:00:18.977Z,89.32
2023-01-18T19:02:46.316Z,88.76
2023-01-18T19:05:13.387Z,88.14
2023-01-18T19:07:42.308Z,88.41
2023-01-18T19:10:11.466Z,87.91
2023-01-18T19:12:38.512Z,87.62
2023-01-18T19:15:06.340Z,87.59
2023-01-18T19:17:33.688Z,88.05
2023-01-18T19:20:00.705Z,87.42
2023-01-18T19:22:27.735Z,87.94
2023-01-18T19:24:54.775Z,87.98
2023-01-18T19:27:24.417Z,87.50
2023-01-18T19:29:53.200Z,87.99
2023-01-18T19:32:20.516Z,88.00
2023-01-18T19:34:47.507Z,88.12
2023-01-18T19:37:14.568Z,88.11
2023-01-18T19:39:41.790Z,88.23
2023-01-18T19:42:08.866Z,88.30
2023-01-18T19:44:36.007Z,88.64
2023-01-18T19:47:03.324Z,88.58
2023-01-18T19:49:32.991Z,88.38
2023-01-18T19:51:59.974Z,88.53
2023-01-18T19:54:27.073Z,88.26
2023-01-18T19:56:54.143Z,88.34
2023-01-18T19:59:21.182Z,88.23
2023-01-18T20:01:48.367Z,88.86
2023-01-18T20:04:15.744Z,88.82
2023-01-18T20:06:46.114Z,88.75
2023-01-18T20:09:26.985Z,89.02
2023-01-18T20:11:59.735Z,88.57
2023-01-18T20:14:40.395Z,89.06
2023-01-18T20:17:10.615Z,89.06
2023-01-18T20:19:37.634Z,89.39
2023-01-18T20:22:04.673Z,89.22
2023-01-18T20:24:31.734Z,89.46
2023-01-18T20:27:14.989Z,89.05
2023-01-18T20:29:43.363Z,89.11
2023-01-18T20:32:16.569Z,89.46
2023-01-18T20:34:47.925Z,89.24
2023-01-18T20:37:16.403Z,88.89
2023-01-18T20:39:43.627Z,88.52
2023-01-18T20:42:10.726Z,89.18
2023-01-18T20:44:38.096Z,89.15
2023-01-18T20:47:05.623Z,88.85
2023-01-18T20:49:38.339Z,88.93
2023-01-18T20:52:07.454Z,88.57
2023-01-18T20:54:37.807Z,88.21
2023-01-18T20:57:09.393Z,88.53
2023-01-18T20:59:36.440Z,88.65
2023-01-18T21:02:04.251Z,89.67
2023-01-18T21:04:31.414Z,89.67
2023-01-18T21:06:58.733Z,89.60
2023-01-18T21:09:26.138Z,89.84
2023-01-18T21:11:53.327Z,89.20
2023-01-18T21:14:20.432Z,89.43
2023-01-18T21:16:48.070Z,89.35
2023-01-18T21:19:15.184Z,89.22
2023-01-18T21:21:42.339Z,89.68
2023-01-18T21:24:09.382Z,89.80
2023-01-18T21:26:37.664Z,89.54
2023-01-18T21:29:05.616Z,89.41
2023-01-18T21:31:32.789Z,89.76
2023-01-18T21:33:59.888Z,89.50
2023-01-18T21:36:27.928Z,90.22
2023-01-18T21:38:55.257Z,90.22
2023-01-18T21:41:40.603Z,90.27
2023-01-18T21:44:26.141Z,89.90
2023-01-18T21:46:53.170Z,89.84
2023-01-18T21:50:04.073Z,89.57
2023-01-18T21:52:47.760Z,89.36
2023-01-18T21:55:15.614Z,89.48
2023-01-18T21:57:42.953Z,89.64
2023-01-18T22:00:11.520Z,88.71
2023-01-18T22:02:38.631Z,89.75
2023-01-18T22:05:08.468Z,90.24
2023-01-18T22:07:35.534Z,90.77
2023-01-18T22:10:05.944Z,91.01
2023-01-18T22:12:35.516Z,90.57
2023-01-18T22:15:06.980Z,90.31
2023-01-18T22:17:34.080Z,90.24
2023-01-18T22:20:01.781Z,90.47
2023-01-18T22:22:28.964Z,90.14
2023-01-18T22:24:56.984Z,89.88
2023-01-18T22:27:24.059Z,89.74
2023-01-18T22:29:53.091Z,89.96
2023-01-18T22:32:21.560Z,90.14
2023-01-18T22:34:48.564Z,90.40
2023-01-18T22:37:15.580Z,89.29
2023-01-18T22:39:42.581Z,88.76
2023-01-18T22:42:09.599Z,88.58
2023-01-18T22:44:37.432Z,88.55
2023-01-18T22:47:04.519Z,90.25
2023-01-18T22:49:31.511Z,90.58
2023-01-18T22:51:58.559Z,90.63
2023-01-18T22:54:25.729Z,90.75
2023-01-18T22:56:52.721Z,90.40
2023-01-18T22:59:19.741Z,90.57
2023-01-18T23:01:46.770Z,90.60
2023-01-18T23:04:13.798Z,90.53
2023-01-18T23:06:47.734Z,89.08
2023-01-18T23:09:17.578Z,90.47
2023-01-18T23:11:47.308Z,90.09
2023-01-18T23:14:32.951Z,90.94
2023-01-18T23:17:18.668Z,90.45
2023-01-18T23:19:45.700Z,92.07
2023-01-18T23:22:12.835Z,91.62
2023-01-18T23:24:40.042Z,92.49
2023-01-18T23:27:11.941Z,92.48
2023-01-18T23:29:39.775Z,91.83
2023-01-18T23:32:07.949Z,91.82
2023-01-18T23:34:35.309Z,91.70
2023-01-18T23:37:02.624Z,91.43
2023-01-18T23:39:48.421Z,90.85
2023-01-18T23:42:33.863Z,92.15
2023-01-18T23:45:19.831Z,91.69
2023-01-18T23:48:05.404Z,91.53
2023-01-18T23:50:50.642Z,90.50
2023-01-18T23:53:36.237Z,90.15
2023-01-18T23:56:03.248Z,89.40
2023-01-18T23:58:30.244Z,89.61
